sensor_id;sensor_type;location;lat;lon;timestamp;pressure;altitude;pressure_sealevel;temperature;humidity
21273;BME280;36726;52.328;10.552;2022-10-31T00:00:54;100974.63;;;12.99;100.00
21273;BME280;36726;52.328;10.552;2022-10-31T00:03:21;100983.44;;;12.95;100.00
21273;BME280;36726;52.328;10.552;2022-10-31T00:05:49;100986.94;;;12.91;100.00
21273;BME280;36726;52.328;10.552;2022-10-31T00:08:16;100972.72;;;12.86;100.00
21273;BME280;36726;52.328;10.552;2022-10-31T00:10:44;100978.03;;;12.83;100.00
21273;BME280;36726;52.328;10.552;2022-10-31T00:13:13;100975.31;;;12.79;100.00
21273;BME280;36726;52.328;10.552;2022-10-31T00:15:40;100985.00;;;12.75;100.00
21273;BME280;36726;52.328;10.552;2022-10-31T00:18:08;100983.22;;;12.73;100.00
21273;BME280;36726;52.328;10.552;2022-10-31T00:20:35;100988.50;;;12.71;100.00
21273;BME280;36726;52.328;10.552;2022-10-31T00:23:03;100984.94;;;12.69;100.00
21273;BME280;36726;52.328;10.552;2022-10-31T00:25:37;100989.31;;;12.66;100.00
21273;BME280;36726;52.328;10.552;2022-10-31T00:28:05;100986.66;;;12.64;100.00
21273;BME280;36726;52.328;10.552;2022-10-31T00:30:33;100983.97;;;12.61;100.00
21273;BME280;36726;52.328;10.552;2022-10-31T00:32:59;100984.81;;;12.57;100.00
21273;BME280;36726;52.328;10.552;2022-10-31T00:35:26;100996.31;;;12.56;100.00
21273;BME280;36726;52.328;10.552;2022-10-31T00:37:53;100993.59;;;12.53;100.00
21273;BME280;36726;52.328;10.552;2022-10-31T00:40:19;100994.47;;;12.50;100.00
21273;BME280;36726;52.328;10.552;2022-10-31T00:42:46;100996.22;;;12.48;100.00
21273;BME280;36726;52.328;10.552;2022-10-31T00:45:13;101001.50;;;12.47;100.00
21273;BME280;36726;52.328;10.552;2022-10-31T00:47:39;100997.94;;;12.46;100.00
21273;BME280;36726;52.328;10.552;2022-10-31T00:50:06;101000.59;;;12.45;100.00
21273;BME280;36726;52.328;10.552;2022-10-31T00:52:33;101003.25;;;12.45;100.00
21273;BME280;36726;52.328;10.552;2022-10-31T00:54:59;100998.78;;;12.44;100.00
21273;BME280;36726;52.328;10.552;2022-10-31T00:57:26;101003.22;;;12.43;100.00
21273;BME280;36726;52.328;10.552;2022-10-31T00:59:53;101002.31;;;12.43;100.00
21273;BME280;36726;52.328;10.552;2022-10-31T01:02:19;101006.72;;;12.42;100.00
21273;BME280;36726;52.328;10.552;2022-10-31T01:04:49;101006.72;;;12.41;100.00
21273;BME280;36726;52.328;10.552;2022-10-31T01:07:15;101009.38;;;12.39;100.00
21273;BME280;36726;52.328;10.552;2022-10-31T01:09:43;101009.34;;;12.36;100.00
21273;BME280;36726;52.328;10.552;2022-10-31T01:12:10;101022.53;;;12.33;100.00
21273;BME280;36726;52.328;10.552;2022-10-31T01:14:42;101011.00;;;12.30;100.00
21273;BME280;36726;52.328;10.552;2022-10-31T01:17:09;101020.72;;;12.29;100.00
21273;BME280;36726;52.328;10.552;2022-10-31T01:19:36;101016.25;;;12.25;100.00
21273;BME280;36726;52.328;10.552;2022-10-31T01:22:02;101019.75;;;12.23;100.00
21273;BME280;36726;52.328;10.552;2022-10-31T01:24:29;101017.91;;;12.19;100.00
21273;BME280;36726;52.328;10.552;2022-10-31T01:26:55;101027.66;;;12.18;100.00
21273;BME280;36726;52.328;10.552;2022-10-31T01:29:22;101025.84;;;12.14;100.00
21273;BME280;36726;52.328;10.552;2022-10-31T01:31:48;101021.38;;;12.12;100.00
21273;BME280;36726;52.328;10.552;2022-10-31T01:34:17;101024.00;;;12.10;100.00
21273;BME280;36726;52.328;10.552;2022-10-31T01:36:45;101019.53;;;12.08;100.00
21273;BME280;36726;52.328;10.552;2022-10-31T01:39:15;101029.25;;;12.06;100.00
21273;BME280;36726;52.328;10.552;2022-10-31T01:41:47;101038.94;;;12.04;100.00
21273;BME280;36726;52.328;10.552;2022-10-31T01:46:55;101036.22;;;12.01;100.00
21273;BME280;36726;52.328;10.552;2022-10-31T01:49:44;101038.88;;;11.99;100.00
21273;BME280;36726;52.328;10.552;2022-10-31T01:54:52;101037.06;;;11.97;100.00
21273;BME280;36726;52.328;10.552;2022-10-31T01:57:21;101049.41;;;11.95;100.00
21273;BME280;36726;52.328;10.552;2022-10-31T01:59:55;101037.00;;;11.94;100.00
21273;BME280;36726;52.328;10.552;2022-10-31T02:02:24;101042.31;;;11.94;100.00
21273;BME280;36726;52.328;10.552;2022-10-31T02:04:55;101041.41;;;11.92;100.00
21273;BME280;36726;52.328;10.552;2022-10-31T02:07:26;101036.06;;;11.90;100.00
21273;BME280;36726;52.328;10.552;2022-10-31T02:09:58;101046.69;;;11.90;100.00
21273;BME280;36726;52.328;10.552;2022-10-31T02:12:25;101051.06;;;11.88;100.00
21273;BME280;36726;52.328;10.552;2022-10-31T02:14:59;101044.91;;;11.88;100.00
21273;BME280;36726;52.328;10.552;2022-10-31T02:17:26;101055.50;;;11.88;100.00
21273;BME280;36726;52.328;10.552;2022-10-31T02:20:09;101063.44;;;11.88;100.00
21273;BME280;36726;52.328;10.552;2022-10-31T02:34:02;101068.78;;;11.91;100.00
21273;BME280;36726;52.328;10.552;2022-10-31T02:36:46;101066.13;;;11.91;100.00
21273;BME280;36726;52.328;10.552;2022-10-31T02:39:42;101067.94;;;11.93;100.00
21273;BME280;36726;52.328;10.552;2022-10-31T02:42:51;101072.41;;;11.96;100.00
21273;BME280;36726;52.328;10.552;2022-10-31T02:45:31;101072.50;;;12.02;100.00
21273;BME280;36726;52.328;10.552;2022-10-31T02:48:10;101077.84;;;12.05;100.00
21273;BME280;36726;52.328;10.552;2022-10-31T02:50:43;101077.00;;;12.06;100.00
21273;BME280;36726;52.328;10.552;2022-10-31T02:53:15;101082.34;;;12.12;100.00
21273;BME280;36726;52.328;10.552;2022-10-31T02:55:47;101082.59;;;12.27;100.00
21273;BME280;36726;52.328;10.552;2022-10-31T02:58:19;101086.31;;;12.41;100.00
21273;BME280;36726;52.328;10.552;2022-10-31T03:07:01;101088.63;;;12.83;100.00
21273;BME280;36726;52.328;10.552;2022-10-31T03:09:55;101086.09;;;12.93;100.00
21273;BME280;36726;52.328;10.552;2022-10-31T03:15:22;101098.75;;;13.12;100.00
21273;BME280;36726;52.328;10.552;2022-10-31T03:18:05;101094.41;;;13.20;100.00
21273;BME280;36726;52.328;10.552;2022-10-31T03:20:42;101099.78;;;13.26;100.00
21273;BME280;36726;52.328;10.552;2022-10-31T03:23:15;101090.97;;;13.30;100.00
21273;BME280;36726;52.328;10.552;2022-10-31T03:25:48;101091.84;;;13.31;100.00
21273;BME280;36726;52.328;10.552;2022-10-31T03:28:18;101103.34;;;13.28;100.00
21273;BME280;36726;52.328;10.552;2022-10-31T03:30:50;101099.78;;;13.25;100.00
21273;BME280;36726;52.328;10.552;2022-10-31T03:33:23;101099.72;;;13.23;100.00
21273;BME280;36726;52.328;10.552;2022-10-31T03:35:57;101097.06;;;13.20;100.00
21273;BME280;36726;52.328;10.552;2022-10-31T03:38:28;101094.31;;;13.14;100.00
21273;BME280;36726;52.328;10.552;2022-10-31T03:40:58;101096.88;;;13.05;100.00
21273;BME280;36726;52.328;10.552;2022-10-31T03:43:33;101097.66;;;12.98;100.00
21273;BME280;36726;52.328;10.552;2022-10-31T03:46:04;101098.44;;;12.91;100.00
21273;BME280;36726;52.328;10.552;2022-10-31T03:48:31;101103.72;;;12.85;100.00
21273;BME280;36726;52.328;10.552;2022-10-31T03:51:13;101101.91;;;12.84;100.00
21273;BME280;36726;52.328;10.552;2022-10-31T03:54:01;101115.19;;;12.86;100.00
21273;BME280;36726;52.328;10.552;2022-10-31T03:56:35;101115.19;;;12.86;100.00
21273;BME280;36726;52.328;10.552;2022-10-31T03:59:12;101116.09;;;12.86;100.00
21273;BME280;36726;52.328;10.552;2022-10-31T04:01:44;101113.50;;;12.91;100.00
21273;BME280;36726;52.328;10.552;2022-10-31T04:04:13;101117.97;;;12.96;100.00
21273;BME280;36726;52.328;10.552;2022-10-31T04:06:42;101111.94;;;13.03;100.00
21273;BME280;36726;52.328;10.552;2022-10-31T04:09:10;101104.00;;;13.08;100.00
21273;BME280;36726;52.328;10.552;2022-10-31T04:11:50;101112.00;;;13.11;100.00
21273;BME280;36726;52.328;10.552;2022-10-31T04:14:32;101127.09;;;13.16;100.00
21273;BME280;36726;52.328;10.552;2022-10-31T04:17:03;101114.75;;;13.20;100.00
21273;BME280;36726;52.328;10.552;2022-10-31T04:19:35;101129.00;;;13.25;100.00
21273;BME280;36726;52.328;10.552;2022-10-31T04:22:02;101131.69;;;13.31;100.00
21273;BME280;36726;52.328;10.552;2022-10-31T04:24:29;101127.34;;;13.37;100.00
21273;BME280;36726;52.328;10.552;2022-10-31T04:26:57;101130.94;;;13.42;100.00
21273;BME280;36726;52.328;10.552;2022-10-31T04:29:23;101124.81;;;13.49;100.00
21273;BME280;36726;52.328;10.552;2022-10-31T04:31:50;101123.06;;;13.53;100.00
21273;BME280;36726;52.328;10.552;2022-10-31T04:34:17;101130.22;;;13.57;100.00
21273;BME280;36726;52.328;10.552;2022-10-31T04:36:43;101134.69;;;13.61;100.00
21273;BME280;36726;52.328;10.552;2022-10-31T04:39:13;101137.38;;;13.66;100.00
21273;BME280;36726;52.328;10.552;2022-10-31T04:41:46;101130.31;;;13.71;100.00
21273;BME280;36726;52.328;10.552;2022-10-31T04:44:14;101129.47;;;13.73;100.00
21273;BME280;36726;52.328;10.552;2022-10-31T04:46:41;101137.47;;;13.75;100.00
21273;BME280;36726;52.328;10.552;2022-10-31T04:49:09;101143.66;;;13.74;100.00
21273;BME280;36726;52.328;10.552;2022-10-31T04:51:36;101154.31;;;13.74;100.00
21273;BME280;36726;52.328;10.552;2022-10-31T04:54:02;101141.88;;;13.73;100.00
21273;BME280;36726;52.328;10.552;2022-10-31T04:56:48;101141.03;;;13.75;100.00
21273;BME280;36726;52.328;10.552;2022-10-31T04:59:19;101141.88;;;13.76;100.00
21273;BME280;36726;52.328;10.552;2022-10-31T05:01:50;101146.31;;;13.74;100.00
21273;BME280;36726;52.328;10.552;2022-10-31T05:04:22;101142.75;;;13.72;100.00
21273;BME280;36726;52.328;10.552;2022-10-31T05:06:49;101144.47;;;13.67;100.00
21273;BME280;36726;52.328;10.552;2022-10-31T05:09:16;101154.16;;;13.62;100.00
21273;BME280;36726;52.328;10.552;2022-10-31T05:11:42;101149.66;;;13.54;100.00
21273;BME280;36726;52.328;10.552;2022-10-31T05:14:34;101144.25;;;13.45;100.00
21273;BME280;36726;52.328;10.552;2022-10-31T05:17:24;101145.06;;;13.38;100.00
21273;BME280;36726;52.328;10.552;2022-10-31T05:20:10;101145.03;;;13.34;100.00
21273;BME280;36726;52.328;10.552;2022-10-31T05:22:57;101138.81;;;13.30;100.00
21273;BME280;36726;52.328;10.552;2022-10-31T05:25:26;101143.13;;;13.24;100.00
21273;BME280;36726;52.328;10.552;2022-10-31T05:27:54;101143.97;;;13.20;100.00
21273;BME280;36726;52.328;10.552;2022-10-31T05:30:24;101144.84;;;13.19;100.00
21273;BME280;36726;52.328;10.552;2022-10-31T05:32:51;101143.94;;;13.17;100.00
21273;BME280;36726;52.328;10.552;2022-10-31T05:35:36;101149.25;;;13.15;100.00
21273;BME280;36726;52.328;10.552;2022-10-31T05:38:41;101147.50;;;13.17;100.00
21273;BME280;36726;52.328;10.552;2022-10-31T05:41:19;101146.63;;;13.18;100.00
21273;BME280;36726;52.328;10.552;2022-10-31T05:43:46;101152.81;;;13.19;100.00
21273;BME280;36726;52.328;10.552;2022-10-31T05:46:15;101141.28;;;13.17;100.00
21273;BME280;36726;52.328;10.552;2022-10-31T05:48:59;101146.59;;;13.15;100.00
21273;BME280;36726;52.328;10.552;2022-10-31T05:51:47;101149.22;;;13.12;100.00
21273;BME280;36726;52.328;10.552;2022-10-31T05:54:13;101138.50;;;13.03;100.00
21273;BME280;36726;52.328;10.552;2022-10-31T05:56:43;101139.22;;;12.96;100.00
21273;BME280;36726;52.328;10.552;2022-10-31T05:59:10;101140.94;;;12.90;100.00
21273;BME280;36726;52.328;10.552;2022-10-31T06:01:38;101139.06;;;12.81;100.00
21273;BME280;36726;52.328;10.552;2022-10-31T06:04:12;101142.50;;;12.74;100.00
21273;BME280;36726;52.328;10.552;2022-10-31T06:06:39;101148.63;;;12.69;100.00
21273;BME280;36726;52.328;10.552;2022-10-31T06:09:06;101150.34;;;12.64;100.00
21273;BME280;36726;52.328;10.552;2022-10-31T06:11:34;101151.13;;;12.58;100.00
21273;BME280;36726;52.328;10.552;2022-10-31T06:14:01;101157.25;;;12.54;100.00
21273;BME280;36726;52.328;10.552;2022-10-31T06:16:34;101154.53;;;12.51;100.00
21273;BME280;36726;52.328;10.552;2022-10-31T06:19:18;101162.47;;;12.46;100.00
21273;BME280;36726;52.328;10.552;2022-10-31T06:21:45;101156.22;;;12.43;100.00
21273;BME280;36726;52.328;10.552;2022-10-31T06:24:12;101163.25;;;12.39;100.00
21273;BME280;36726;52.328;10.552;2022-10-31T06:27:16;101165.84;;;12.36;100.00
21273;BME280;36726;52.328;10.552;2022-10-31T06:29:43;101162.28;;;12.34;100.00
21273;BME280;36726;52.328;10.552;2022-10-31T06:32:20;101162.28;;;12.34;100.00
21273;BME280;36726;52.328;10.552;2022-10-31T06:34:47;101171.97;;;12.32;100.00
21273;BME280;36726;52.328;10.552;2022-10-31T06:37:14;101173.75;;;12.33;100.00
21273;BME280;36726;52.328;10.552;2022-10-31T06:39:44;101179.94;;;12.32;100.00
21273;BME280;36726;52.328;10.552;2022-10-31T06:42:15;101181.72;;;12.33;100.00
21273;BME280;36726;52.328;10.552;2022-10-31T06:44:42;101185.28;;;12.35;100.00
21273;BME280;36726;52.328;10.552;2022-10-31T06:47:54;101180.00;;;12.37;100.00
21273;BME280;36726;52.328;10.552;2022-10-31T06:51:01;101184.47;;;12.41;100.00
21273;BME280;36726;52.328;10.552;2022-10-31T06:53:28;101188.09;;;12.46;100.00
21273;BME280;36726;52.328;10.552;2022-10-31T06:55:58;101189.97;;;12.53;100.00
21273;BME280;36726;52.328;10.552;2022-10-31T06:58:25;101199.88;;;12.65;100.00
21273;BME280;36726;52.328;10.552;2022-10-31T07:00:59;101200.97;;;12.80;100.00
21273;BME280;36726;52.328;10.552;2022-10-31T07:03:25;101199.44;;;12.97;100.00
21273;BME280;36726;52.328;10.552;2022-10-31T07:05:55;101198.81;;;13.15;100.00
21273;BME280;36726;52.328;10.552;2022-10-31T07:08:22;101210.53;;;13.30;100.00
21273;BME280;36726;52.328;10.552;2022-10-31T07:10:54;101202.72;;;13.45;100.00
21273;BME280;36726;52.328;10.552;2022-10-31T07:13:23;101209.97;;;13.60;100.00
21273;BME280;36726;52.328;10.552;2022-10-31T07:16:03;101203.00;;;13.71;100.00
21273;BME280;36726;52.328;10.552;2022-10-31T07:18:33;101203.09;;;13.80;100.00
21273;BME280;36726;52.328;10.552;2022-10-31T07:21:00;101197.88;;;13.89;100.00
21273;BME280;36726;52.328;10.552;2022-10-31T07:23:26;101187.31;;;13.97;100.00
21273;BME280;36726;52.328;10.552;2022-10-31T07:26:19;101190.91;;;14.06;100.00
21273;BME280;36726;52.328;10.552;2022-10-31T07:28:47;101200.75;;;14.15;100.00
21273;BME280;36726;52.328;10.552;2022-10-31T07:31:17;101203.50;;;14.22;100.00
21273;BME280;36726;52.328;10.552;2022-10-31T07:33:43;101206.22;;;14.30;100.00
21273;BME280;36726;52.328;10.552;2022-10-31T07:36:38;101199.22;;;14.41;100.00
21273;BME280;36726;52.328;10.552;2022-10-31T07:39:05;101201.06;;;14.49;100.00
21273;BME280;36726;52.328;10.552;2022-10-31T07:41:34;101199.34;;;14.59;100.00
21273;BME280;36726;52.328;10.552;2022-10-31T07:44:01;101194.97;;;14.69;100.00
21273;BME280;36726;52.328;10.552;2022-10-31T07:46:46;101205.69;;;14.81;100.00
21273;BME280;36726;52.328;10.552;2022-10-31T07:49:41;101201.31;;;14.93;100.00
21273;BME280;36726;52.328;10.552;2022-10-31T07:52:26;101193.38;;;15.02;100.00
21273;BME280;36726;52.328;10.552;2022-10-31T07:55:18;101207.63;;;15.10;100.00
21273;BME280;36726;52.328;10.552;2022-10-31T07:57:55;101206.78;;;15.14;100.00
21273;BME280;36726;52.328;10.552;2022-10-31T08:00:22;101200.53;;;15.17;100.00
21273;BME280;36726;52.328;10.552;2022-10-31T08:02:56;101205.91;;;15.23;100.00
21273;BME280;36726;52.328;10.552;2022-10-31T08:05:42;101199.72;;;15.31;100.00
21273;BME280;36726;52.328;10.552;2022-10-31T08:08:29;101194.44;;;15.40;100.00
21273;BME280;36726;52.328;10.552;2022-10-31T08:11:01;101200.72;;;15.47;100.00
21273;BME280;36726;52.328;10.552;2022-10-31T08:13:28;101201.59;;;15.53;100.00
21273;BME280;36726;52.328;10.552;2022-10-31T08:15:57;101202.53;;;15.63;100.00
21273;BME280;36726;52.328;10.552;2022-10-31T08:18:31;101198.09;;;15.67;100.00
21273;BME280;36726;52.328;10.552;2022-10-31T08:20:58;101206.09;;;15.73;100.00
21273;BME280;36726;52.328;10.552;2022-10-31T08:23:24;101211.44;;;15.82;100.00
21273;BME280;36726;52.328;10.552;2022-10-31T08:25:53;101209.69;;;15.87;100.00
21273;BME280;36726;52.328;10.552;2022-10-31T08:28:26;101216.78;;;15.89;100.00
21273;BME280;36726;52.328;10.552;2022-10-31T08:30:54;101211.47;;;15.97;100.00
21273;BME280;36726;52.328;10.552;2022-10-31T08:33:53;101210.59;;;16.04;100.00
21273;BME280;36726;52.328;10.552;2022-10-31T08:36:48;101219.50;;;16.12;100.00
21273;BME280;36726;52.328;10.552;2022-10-31T08:39:23;101217.72;;;16.17;100.00
21273;BME280;36726;52.328;10.552;2022-10-31T08:41:50;101221.28;;;16.22;100.00
21273;BME280;36726;52.328;10.552;2022-10-31T08:44:16;101209.72;;;16.27;100.00
21273;BME280;36726;52.328;10.552;2022-10-31T08:46:43;101208.81;;;16.30;100.00
21273;BME280;36726;52.328;10.552;2022-10-31T08:49:10;101212.41;;;16.32;100.00
21273;BME280;36726;52.328;10.552;2022-10-31T08:51:40;101213.25;;;16.40;100.00
21273;BME280;36726;52.328;10.552;2022-10-31T08:54:07;101209.72;;;16.47;100.00
21273;BME280;36726;52.328;10.552;2022-10-31T08:57:00;101205.28;;;16.55;100.00
21273;BME280;36726;52.328;10.552;2022-10-31T08:59:37;101197.22;;;16.61;100.00
21273;BME280;36726;52.328;10.552;2022-10-31T09:02:12;101203.50;;;16.66;100.00
21273;BME280;36726;52.328;10.552;2022-10-31T09:04:39;101200.81;;;16.69;100.00
21273;BME280;36726;52.328;10.552;2022-10-31T09:07:06;101195.44;;;16.74;100.00
21273;BME280;36726;52.328;10.552;2022-10-31T09:09:48;101190.97;;;16.77;100.00
21273;BME280;36726;52.328;10.552;2022-10-31T09:12:17;101193.66;;;16.80;100.00
21273;BME280;36726;52.328;10.552;2022-10-31T09:15:12;101204.34;;;16.82;100.00
21273;BME280;36726;52.328;10.552;2022-10-31T09:17:48;101196.28;;;16.92;99.93
21273;BME280;36726;52.328;10.552;2022-10-31T09:20:36;101195.41;;;16.95;99.75
21273;BME280;36726;52.328;10.552;2022-10-31T09:23:14;101198.94;;;16.98;99.21
21273;BME280;36726;52.328;10.552;2022-10-31T09:25:42;101197.16;;;16.96;98.22
21273;BME280;36726;52.328;10.552;2022-10-31T09:28:41;101201.59;;;16.95;97.33
21273;BME280;36726;52.328;10.552;2022-10-31T09:31:11;101194.50;;;16.93;97.29
21273;BME280;36726;52.328;10.552;2022-10-31T09:33:57;101194.47;;;16.97;97.16
21273;BME280;36726;52.328;10.552;2022-10-31T09:36:29;101192.69;;;17.05;97.20
21273;BME280;36726;52.328;10.552;2022-10-31T09:38:56;101190.91;;;17.07;96.61
21273;BME280;36726;52.328;10.552;2022-10-31T09:44:07;101190.84;;;17.16;96.11
21273;BME280;36726;52.328;10.552;2022-10-31T09:49:48;101196.13;;;17.33;95.39
21273;BME280;36726;52.328;10.552;2022-10-31T09:52:24;101202.38;;;17.32;94.18
21273;BME280;36726;52.328;10.552;2022-10-31T09:54:57;101190.81;;;17.27;94.26
21273;BME280;36726;52.328;10.552;2022-10-31T09:57:31;101189.91;;;17.25;94.02
21273;BME280;36726;52.328;10.552;2022-10-31T09:59:59;101186.38;;;17.20;94.11
21273;BME280;36726;52.328;10.552;2022-10-31T10:02:37;101180.19;;;17.07;94.15
21273;BME280;36726;52.328;10.552;2022-10-31T10:05:11;101174.03;;;16.93;94.46
21273;BME280;36726;52.328;10.552;2022-10-31T10:08:03;101167.81;;;16.82;95.15
21273;BME280;36726;52.328;10.552;2022-10-31T10:16:54;101179.41;;;16.71;96.22
21273;BME280;36726;52.328;10.552;2022-10-31T10:22:15;101176.75;;;16.77;97.03
21273;BME280;36726;52.328;10.552;2022-10-31T10:25:12;101173.16;;;16.82;96.95
21273;BME280;36726;52.328;10.552;2022-10-31T10:30:42;101164.22;;;16.92;96.92
21273;BME280;36726;52.328;10.552;2022-10-31T10:33:17;101162.41;;;16.97;96.84
21273;BME280;36726;52.328;10.552;2022-10-31T10:35:55;101162.41;;;17.02;96.69
21273;BME280;36726;52.328;10.552;2022-10-31T10:38:38;101157.91;;;17.07;96.80
21273;BME280;36726;52.328;10.552;2022-10-31T10:41:23;101151.66;;;17.12;96.16
21273;BME280;36726;52.328;10.552;2022-10-31T10:43:51;101149.84;;;17.17;96.41
21273;BME280;36726;52.328;10.552;2022-10-31T10:49:21;101147.13;;;17.29;95.50
21273;BME280;36726;52.328;10.552;2022-10-31T10:54:56;101131.03;;;17.38;94.17
21273;BME280;36726;52.328;10.552;2022-10-31T10:57:43;101127.44;;;17.41;94.11
21273;BME280;36726;52.328;10.552;2022-10-31T11:00:30;101127.41;;;17.42;93.24
21273;BME280;36726;52.328;10.552;2022-10-31T11:02:58;101130.09;;;17.42;93.16
21273;BME280;36726;52.328;10.552;2022-10-31T11:08:29;101126.50;;;17.46;92.61
21273;BME280;36726;52.328;10.552;2022-10-31T11:13:47;101126.50;;;17.49;91.93
21273;BME280;36726;52.328;10.552;2022-10-31T11:16:28;101119.38;;;17.51;91.50
21273;BME280;36726;52.328;10.552;2022-10-31T11:19:07;101123.81;;;17.54;91.34
21273;BME280;36726;52.328;10.552;2022-10-31T11:21:40;101123.78;;;17.57;91.45
21273;BME280;36726;52.328;10.552;2022-10-31T11:26:38;101116.63;;;17.64;90.91
21273;BME280;36726;52.328;10.552;2022-10-31T11:29:12;101113.94;;;17.67;90.58
21273;BME280;36726;52.328;10.552;2022-10-31T11:31:40;101110.34;;;17.71;91.05
21273;BME280;36726;52.328;10.552;2022-10-31T11:34:26;101104.03;;;17.78;90.33
21273;BME280;36726;52.328;10.552;2022-10-31T11:36:53;101095.94;;;17.87;90.37
21273;BME280;36726;52.328;10.552;2022-10-31T11:39:22;101097.63;;;17.95;89.96
21273;BME280;36726;52.328;10.552;2022-10-31T11:41:52;101094.88;;;18.03;89.74
21273;BME280;36726;52.328;10.552;2022-10-31T11:44:30;101093.94;;;18.08;88.98
21273;BME280;36726;52.328;10.552;2022-10-31T11:47:00;101088.53;;;18.13;87.89
21273;BME280;36726;52.328;10.552;2022-10-31T11:49:42;101080.47;;;18.17;86.64
21273;BME280;36726;52.328;10.552;2022-10-31T11:52:16;101083.97;;;18.22;86.51
21273;BME280;36726;52.328;10.552;2022-10-31T11:55:13;101085.66;;;18.31;86.17
21273;BME280;36726;52.328;10.552;2022-10-31T11:57:46;101077.59;;;18.37;85.68
21273;BME280;36726;52.328;10.552;2022-10-31T12:02:49;101080.22;;;18.41;85.63
21273;BME280;36726;52.328;10.552;2022-10-31T12:05:23;101074.84;;;18.40;83.73
21273;BME280;36726;52.328;10.552;2022-10-31T12:07:51;101078.47;;;18.37;83.23
21273;BME280;36726;52.328;10.552;2022-10-31T12:10:21;101078.47;;;18.37;83.57
21273;BME280;36726;52.328;10.552;2022-10-31T12:13:01;101081.19;;;18.36;83.34
21273;BME280;36726;52.328;10.552;2022-10-31T12:15:38;101074.94;;;18.32;82.94
21273;BME280;36726;52.328;10.552;2022-10-31T12:18:35;101067.88;;;18.28;83.43
21273;BME280;36726;52.328;10.552;2022-10-31T12:29:19;101063.50;;;18.18;84.22
21273;BME280;36726;52.328;10.552;2022-10-31T12:40:35;101048.47;;;18.07;83.56
21273;BME280;36726;52.328;10.552;2022-10-31T12:45:58;101039.53;;;18.06;83.38
21273;BME280;36726;52.328;10.552;2022-10-31T12:59:47;101023.25;;;18.24;81.03
21273;BME280;36726;52.328;10.552;2022-10-31T13:02:22;101021.41;;;18.31;81.39
21273;BME280;36726;52.328;10.552;2022-10-31T13:05:03;101011.47;;;18.40;81.76
21273;BME280;36726;52.328;10.552;2022-10-31T13:07:48;101013.16;;;18.49;83.50
21273;BME280;36726;52.328;10.552;2022-10-31T13:10:40;101009.47;;;18.60;84.44
21273;BME280;36726;52.328;10.552;2022-10-31T13:13:16;101000.47;;;18.66;85.18
21273;BME280;36726;52.328;10.552;2022-10-31T13:15:50;100998.66;;;18.68;85.46
21273;BME280;36726;52.328;10.552;2022-10-31T13:18:27;101000.47;;;18.66;85.70
21273;BME280;36726;52.328;10.552;2022-10-31T13:20:55;100991.56;;;18.64;86.12
21273;BME280;36726;52.328;10.552;2022-10-31T13:23:30;100997.81;;;18.61;86.41
21273;BME280;36726;52.328;10.552;2022-10-31T13:27:00;100993.44;;;18.56;86.65
21273;BME280;36726;52.328;10.552;2022-10-31T13:29:32;100992.63;;;18.51;86.96
21273;BME280;36726;52.328;10.552;2022-10-31T13:32:04;100985.53;;;18.45;87.44
21273;BME280;36726;52.328;10.552;2022-10-31T13:34:40;100982.91;;;18.39;87.65
21273;BME280;36726;52.328;10.552;2022-10-31T13:37:39;100975.84;;;18.34;87.71
21273;BME280;36726;52.328;10.552;2022-10-31T13:45:54;100969.69;;;18.26;85.71
21273;BME280;36726;52.328;10.552;2022-10-31T13:50:57;100958.16;;;18.21;86.83
21273;BME280;36726;52.328;10.552;2022-10-31T13:53:43;100951.94;;;18.17;88.29
21273;BME280;36726;52.328;10.552;2022-10-31T13:56:15;100948.41;;;18.14;89.15
21273;BME280;36726;52.328;10.552;2022-10-31T14:01:28;100947.66;;;18.03;89.72
21273;BME280;36726;52.328;10.552;2022-10-31T14:07:24;100937.09;;;17.91;90.14
21273;BME280;36726;52.328;10.552;2022-10-31T14:09:33;100942.50;;;17.85;90.62
21273;BME280;36726;52.328;10.552;2022-10-31T14:12:14;100947.03;;;17.80;91.05
21273;BME280;36726;52.328;10.552;2022-10-31T14:14:50;100939.03;;;17.74;91.62
21273;BME280;36726;52.328;10.552;2022-10-31T14:17:22;100935.53;;;17.69;91.91
21273;BME280;36726;52.328;10.552;2022-10-31T14:22:31;100940.97;;;17.59;92.52
21273;BME280;36726;52.328;10.552;2022-10-31T14:27:52;100933.03;;;17.52;93.31
21273;BME280;36726;52.328;10.552;2022-10-31T14:30:22;100931.28;;;17.48;93.68
21273;BME280;36726;52.328;10.552;2022-10-31T14:32:51;100931.28;;;17.45;94.09
21273;BME280;36726;52.328;10.552;2022-10-31T14:35:20;100925.97;;;17.40;94.30
21273;BME280;36726;52.328;10.552;2022-10-31T14:40:57;100918.03;;;17.31;94.78
21273;BME280;36726;52.328;10.552;2022-10-31T14:43:40;100917.19;;;17.25;93.52
21273;BME280;36726;52.328;10.552;2022-10-31T14:51:54;100924.44;;;17.12;90.40
21273;BME280;36726;52.328;10.552;2022-10-31T14:54:32;100916.47;;;17.06;90.60
21273;BME280;36726;52.328;10.552;2022-10-31T14:57:16;100920.91;;;17.04;90.52
21273;BME280;36726;52.328;10.552;2022-10-31T14:59:52;100916.53;;;17.00;90.99
21273;BME280;36726;52.328;10.552;2022-10-31T15:02:30;100909.44;;;16.96;90.86
21273;BME280;36726;52.328;10.552;2022-10-31T15:05:08;100905.00;;;16.92;91.52
21273;BME280;36726;52.328;10.552;2022-10-31T15:07:35;100912.13;;;16.90;91.85